createdAt,value
2018-12-09T00:06:47.557Z,986.4
2018-12-09T00:17:32.179Z,986.4
2018-12-09T00:28:51.326Z,986.2
2018-12-09T00:39:04.986Z,986.2
2018-12-09T00:49:49.568Z,986.0
2018-12-09T01:00:03.006Z,986.2
2018-12-09T01:10:17.193Z,986.3
2018-12-09T01:20:31.398Z,986.4
2018-12-09T01:30:44.764Z,986.7
2018-12-09T01:40:58.946Z,986.7
2018-12-09T01:51:44.454Z,986.8
2018-12-09T02:01:55.783Z,986.9
2018-12-09T02:12:07.153Z,987.0
2018-12-09T02:22:20.682Z,987.0
2018-12-09T02:32:31.838Z,987.0
2018-12-09T02:42:43.173Z,987.0
2018-12-09T02:52:57.417Z,987.0
2018-12-09T03:03:43.769Z,987.0
2018-12-09T03:14:32.663Z,987.0
2018-12-09T03:25:21.609Z,987.2
2018-12-09T03:35:40.928Z,987.1
2018-12-09T03:46:37.756Z,987.1
2018-12-09T03:56:56.859Z,987.2
2018-12-09T04:07:13.677Z,987.4
2018-12-09T04:18:38.180Z,987.6
2018-12-09T04:29:31.445Z,987.7
2018-12-09T04:42:56.807Z,987.7
2018-12-09T04:53:45.297Z,987.6
2018-12-09T05:04:50.775Z,987.9
2018-12-09T05:15:10.484Z,987.9
2018-12-09T05:29:33.435Z,988.0
2018-12-09T05:40:30.016Z,988.2
2018-12-09T05:51:27.875Z,988.1
2018-12-09T06:02:21.763Z,988.2
2018-12-09T06:13:09.797Z,988.3
2018-12-09T06:24:00.919Z,988.4
2018-12-09T06:34:50.982Z,988.5
2018-12-09T06:45:41.309Z,988.4
2018-12-09T06:56:27.306Z,988.6
2018-12-09T07:36:25.949Z,990.1
2018-12-09T07:47:33.401Z,990.2
2018-12-09T07:57:52.015Z,990.5
2018-12-09T08:08:06.995Z,990.7
2018-12-09T08:18:26.272Z,991.0
2018-12-09T08:28:40.376Z,991.0
2018-12-09T08:38:53.805Z,991.2
2018-12-09T08:49:46.977Z,991.4
2018-12-09T09:00:34.979Z,991.5
2018-12-09T09:11:19.741Z,991.7
2018-12-09T09:21:33.114Z,991.8
2018-12-09T09:31:46.320Z,991.9
2018-12-09T09:41:59.795Z,992.1
2018-12-09T09:52:14.202Z,992.2
2018-12-09T10:02:28.336Z,992.4
2018-12-09T10:12:44.010Z,992.6
2018-12-09T10:22:58.219Z,992.6
2018-12-09T10:33:16.859Z,992.7
2018-12-09T10:43:30.803Z,992.8
2018-12-09T10:53:44.369Z,993.0
2018-12-09T11:03:58.512Z,993.0
2018-12-09T11:14:11.751Z,993.1
2018-12-09T11:24:25.553Z,993.2
2018-12-09T11:35:10.432Z,993.3
2018-12-09T11:45:23.815Z,993.2
2018-12-09T11:55:37.211Z,993.3
2018-12-09T12:05:51.249Z,993.4
2018-12-09T12:16:04.472Z,993.6
2018-12-09T12:26:15.666Z,993.8
2018-12-09T12:36:28.915Z,993.9
2018-12-09T12:46:42.269Z,994.1
2018-12-09T12:57:13.645Z,994.2
2018-12-09T13:07:27.800Z,994.5
2018-12-09T13:17:41.976Z,994.6
2018-12-09T13:27:55.833Z,995.0
2018-12-09T13:38:09.522Z,994.9
2018-12-09T13:48:23.435Z,996.0
2018-12-09T13:58:36.570Z,995.4
2018-12-09T14:08:53.367Z,995.7
2018-12-09T14:19:06.884Z,996.2
2018-12-09T14:29:18.338Z,996.4
2018-12-09T14:39:29.515Z,996.7
2018-12-09T14:50:38.644Z,997.0
2018-12-09T15:00:52.687Z,997.4
2018-12-09T15:11:07.521Z,997.7
2018-12-09T16:05:26.931Z,999.0
2018-12-09T16:17:09.824Z,999.5
2018-12-09T16:50:04.661Z,1000.3
2018-12-09T17:02:23.094Z,1000.7
2018-12-09T17:14:23.154Z,1000.9
2018-12-09T17:33:11.324Z,1001.4
2018-12-09T17:46:03.834Z,1002.0
2018-12-09T18:04:42.117Z,1002.4
2018-12-09T18:16:07.284Z,1002.7
2018-12-09T18:28:11.389Z,1002.9
2018-12-09T18:51:42.294Z,1003.6
2018-12-09T21:23:50.457Z,1006.4
2018-12-09T21:34:03.723Z,1006.6
2018-12-09T21:44:48.799Z,1006.8
2018-12-09T21:55:00.149Z,1007.0
2018-12-09T22:05:14.071Z,1007.2
2018-12-09T22:15:27.074Z,1007.4
2018-12-09T22:25:40.697Z,1007.4
2018-12-09T22:35:54.740Z,1007.5
2018-12-09T22:46:07.862Z,1007.8
2018-12-09T22:56:21.454Z,1008.1
2018-12-09T23:06:35.399Z,1008.3
2018-12-09T23:16:48.454Z,1008.4
2018-12-09T23:27:01.294Z,1008.6
2018-12-09T23:37:14.877Z,1008.7
2018-12-09T23:47:29.035Z,1009.0
2018-12-09T23:57:42.409Z,1009.0
